createdAt,value
2022-09-05T00:03:46.166Z,101270.00
2022-09-05T00:10:05.789Z,101265.00
2022-09-05T00:16:47.180Z,101263.00
2022-09-05T00:24:35.364Z,101260.00
2022-09-05T00:30:09.897Z,101256.00
2022-09-05T00:36:32.427Z,101261.00
2022-09-05T00:42:34.889Z,101262.00
2022-09-05T00:48:43.724Z,101266.00
2022-09-05T00:55:01.882Z,101262.00
2022-09-05T01:01:21.469Z,101270.00
2022-09-05T01:07:26.765Z,101272.00
2022-09-05T01:13:48.093Z,101267.00
2022-09-05T01:20:19.510Z,101258.00
2022-09-05T01:26:56.787Z,101258.00
2022-09-05T01:33:06.533Z,101258.00
2022-09-05T01:40:12.499Z,101258.00
2022-09-05T01:46:01.122Z,101242.00
2022-09-05T01:52:29.114Z,101250.00
2022-09-05T01:59:04.055Z,101256.00
2022-09-05T02:05:13.199Z,101259.00
2022-09-05T02:11:35.635Z,101246.00
2022-09-05T02:17:50.897Z,101253.00
2022-09-05T02:24:04.607Z,101251.00
2022-09-05T02:30:18.153Z,101262.00
2022-09-05T02:36:23.311Z,101258.00
2022-09-05T02:45:07.733Z,101265.00
2022-09-05T02:49:21.704Z,101252.00
2022-09-05T02:57:38.986Z,101256.00
2022-09-05T03:03:02.197Z,101248.00
2022-09-05T03:09:17.153Z,101253.00
2022-09-05T03:15:29.136Z,101264.00
2022-09-05T03:22:08.608Z,101268.00
2022-09-05T03:28:48.483Z,101263.00
2022-09-05T03:35:28.038Z,101277.00
2022-09-05T03:42:14.446Z,101283.00
2022-09-05T03:48:28.397Z,101279.00
2022-09-05T03:57:14.941Z,101289.00
2022-09-05T04:04:22.718Z,101280.00
2022-09-05T04:08:34.337Z,101286.00
2022-09-05T04:14:51.244Z,101295.00
2022-09-05T04:21:23.350Z,101310.00
2022-09-05T04:27:32.115Z,101311.00
2022-09-05T04:33:55.856Z,101313.00
2022-09-05T04:40:18.103Z,101321.00
2022-09-05T04:46:23.340Z,101316.00
2022-09-05T04:52:55.135Z,101310.00
2022-09-05T05:02:41.887Z,101232.00
2022-09-05T05:06:08.723Z,101221.00
2022-09-05T05:18:02.895Z,101229.00
2022-09-05T05:19:21.253Z,101298.00
2022-09-05T05:25:24.440Z,101325.00
2022-09-05T05:31:32.285Z,101326.00
2022-09-05T05:37:50.060Z,101334.00
2022-09-05T05:43:52.618Z,101287.00
2022-09-05T05:49:59.777Z,101306.00
2022-09-05T05:56:05.168Z,101304.00
2022-09-05T06:02:43.375Z,101326.00
2022-09-05T06:11:20.438Z,101335.00
2022-09-05T06:15:27.327Z,101332.00
2022-09-05T06:22:10.216Z,101349.00
2022-09-05T06:28:18.879Z,101363.00
2022-09-05T06:35:00.100Z,101371.00
2022-09-05T06:41:39.208Z,101385.00
2022-09-05T06:47:44.657Z,101250.00
2022-09-05T06:54:05.980Z,101254.00
2022-09-05T07:00:17.499Z,101279.00
2022-09-05T07:06:49.422Z,101286.00
2022-09-05T07:12:59.879Z,101281.00
2022-09-05T07:19:12.658Z,101286.00
2022-09-05T07:25:19.030Z,101278.00
2022-09-05T07:31:27.413Z,101317.00
2022-09-05T07:37:43.480Z,101325.00
2022-09-05T07:43:48.279Z,101305.00
2022-09-05T07:50:27.950Z,101304.00
2022-09-05T07:56:59.012Z,101321.00
2022-09-05T08:02:46.951Z,101322.00
2022-09-05T08:09:21.580Z,101324.00
2022-09-05T08:15:51.031Z,101329.00
2022-09-05T08:21:53.108Z,101317.00
2022-09-05T08:27:56.085Z,101357.00
2022-09-05T08:34:03.754Z,101408.00
2022-09-05T08:40:30.483Z,101316.00
2022-09-05T08:46:56.724Z,101286.00
2022-09-05T08:52:59.536Z,101367.00
2022-09-05T08:59:31.509Z,101324.00
2022-09-05T09:06:14.197Z,101294.00
2022-09-05T09:12:17.784Z,101332.00
2022-09-05T09:18:21.655Z,101345.00
2022-09-05T09:24:45.089Z,101293.00
2022-09-05T09:31:18.268Z,101293.00
2022-09-05T09:37:53.410Z,101301.00
2022-09-05T09:44:16.307Z,101316.00
2022-09-05T09:50:52.038Z,101275.00
2022-09-05T09:57:10.046Z,101389.00
2022-09-05T10:10:02.991Z,101373.00
2022-09-05T10:11:09.670Z,101270.00
2022-09-05T10:17:23.405Z,101368.00
2022-09-05T10:23:49.598Z,101375.00
2022-09-05T10:30:09.349Z,101336.00
2022-09-05T10:36:25.146Z,101266.00
2022-09-05T10:42:43.473Z,101360.00
2022-09-05T10:49:10.277Z,101238.00
2022-09-05T10:55:22.457Z,101305.00
2022-09-05T11:02:29.253Z,101343.00
2022-09-05T11:08:42.845Z,101329.00
2022-09-05T11:14:53.785Z,101177.00
2022-09-05T11:21:17.794Z,101310.00
2022-09-05T11:27:32.961Z,101187.00
2022-09-05T11:39:47.194Z,101182.00
2022-09-05T11:40:58.067Z,101306.00
2022-09-05T11:47:27.210Z,101295.00
2022-09-05T12:06:57.148Z,101291.00
2022-09-05T12:13:29.321Z,101276.00
2022-09-05T12:19:43.512Z,101150.00
2022-09-05T12:27:40.234Z,101170.00
2022-09-05T12:35:22.483Z,101166.00
2022-09-05T12:40:54.319Z,101196.00
2022-09-05T12:46:03.434Z,101255.00
2022-09-05T12:52:34.107Z,101223.00
2022-09-05T13:03:02.598Z,101170.00
2022-09-05T13:05:17.901Z,101129.00
2022-09-05T13:14:49.267Z,101186.00
2022-09-05T13:18:03.084Z,101245.00
2022-09-05T13:24:12.488Z,101215.00
2022-09-05T13:31:40.655Z,101245.00
2022-09-05T13:38:11.969Z,101250.00
2022-09-05T13:43:39.347Z,101250.00
2022-09-05T13:50:05.166Z,101245.00
2022-09-05T13:56:24.451Z,101241.00
2022-09-05T14:10:03.421Z,101250.00
2022-09-05T14:16:13.832Z,101247.00
2022-09-05T14:22:52.583Z,101243.00
2022-09-05T14:29:18.592Z,101248.00
2022-09-05T14:37:49.876Z,101244.00
2022-09-05T14:42:21.583Z,101234.00
2022-09-05T14:49:01.631Z,101230.00
2022-09-05T14:55:19.876Z,101232.00
2022-09-05T15:02:56.672Z,101232.00
2022-09-05T15:08:42.561Z,101231.00
2022-09-05T15:14:32.025Z,101230.00
2022-09-05T15:20:36.859Z,101235.00
2022-09-05T15:26:53.058Z,101232.00
2022-09-05T15:33:25.628Z,101229.00
2022-09-05T15:39:33.612Z,101234.00
2022-09-05T15:45:37.714Z,101233.00
2022-09-05T15:51:44.294Z,101234.00
2022-09-05T15:57:57.290Z,101236.00
2022-09-05T16:06:20.004Z,101226.00
2022-09-05T16:10:42.216Z,101223.00
2022-09-05T16:23:11.856Z,101225.00
2022-09-05T16:23:40.754Z,101230.00
2022-09-05T16:29:46.670Z,101235.00
2022-09-05T16:36:15.482Z,101240.00
2022-09-05T16:42:47.377Z,101246.00
2022-09-05T16:49:11.651Z,101249.00
2022-09-05T16:55:31.974Z,101244.00
2022-09-05T17:02:05.585Z,101268.00
2022-09-05T17:08:35.850Z,101263.00
2022-09-05T17:14:44.603Z,101270.00
2022-09-05T17:20:51.325Z,101267.00
2022-09-05T17:29:38.423Z,101281.00
2022-09-05T17:33:20.851Z,101289.00
2022-09-05T17:39:44.347Z,101299.00
2022-09-05T17:45:53.966Z,101306.00
2022-09-05T17:51:56.213Z,101323.00
2022-09-05T17:58:17.447Z,101320.00
2022-09-05T18:04:47.393Z,101321.00
2022-09-05T18:11:14.099Z,101314.00
2022-09-05T18:17:36.123Z,101324.00
2022-09-05T18:23:54.103Z,101320.00
2022-09-05T18:30:10.834Z,101330.00
2022-09-05T18:36:18.866Z,101336.00
2022-09-05T18:42:34.245Z,101326.00
2022-09-05T18:48:44.189Z,101321.00
2022-09-05T18:56:11.460Z,101302.00
2022-09-05T19:01:53.923Z,101308.00
2022-09-05T19:07:59.334Z,101298.00
2022-09-05T19:14:37.742Z,101290.00
2022-09-05T19:21:19.272Z,101290.00
2022-09-05T19:30:58.731Z,101283.00
2022-09-05T19:36:52.371Z,101293.00
2022-09-05T19:46:26.179Z,101291.00
2022-09-05T19:47:45.334Z,101290.00
2022-09-05T19:53:07.373Z,101299.00
2022-09-05T19:59:34.011Z,101286.00
2022-09-05T20:05:41.785Z,101298.00
2022-09-05T20:11:52.997Z,101288.00
2022-09-05T20:17:59.240Z,101285.00
2022-09-05T20:24:14.330Z,101285.00
2022-09-05T20:30:20.039Z,101291.00
2022-09-05T20:43:17.155Z,101277.00
2022-09-05T20:43:28.333Z,101279.00
2022-09-05T20:54:22.373Z,101281.00
2022-09-05T20:55:49.643Z,101282.00
2022-09-05T21:02:00.212Z,101276.00
2022-09-05T21:08:17.384Z,101274.00
2022-09-05T21:14:21.481Z,101270.00
2022-09-05T21:20:25.014Z,101261.00
2022-09-05T21:26:29.813Z,101255.00
2022-09-05T21:32:41.253Z,101261.00
2022-09-05T21:38:44.487Z,101264.00
2022-09-05T21:47:41.328Z,101278.00
2022-09-05T21:51:13.657Z,101273.00
2022-09-05T21:59:33.444Z,101262.00
2022-09-05T22:03:42.305Z,101262.00
2022-09-05T22:09:45.086Z,101273.00
2022-09-05T22:15:48.799Z,101255.00
2022-09-05T22:21:53.817Z,101256.00
2022-09-05T22:28:12.980Z,101253.00
2022-09-05T22:34:15.379Z,101249.00
2022-09-05T22:40:18.104Z,101252.00
2022-09-05T22:46:20.521Z,101247.00
2022-09-05T22:52:22.626Z,101251.00
2022-09-05T22:58:25.111Z,101245.00
2022-09-05T23:04:27.288Z,101254.00
2022-09-05T23:10:30.549Z,101258.00
2022-09-05T23:16:32.689Z,101258.00
2022-09-05T23:22:38.566Z,101257.00
2022-09-05T23:28:43.423Z,101256.00
2022-09-05T23:34:46.167Z,101256.00
2022-09-05T23:40:48.284Z,101249.00
2022-09-05T23:46:50.723Z,101238.00
2022-09-05T23:52:52.874Z,101240.00
2022-09-05T23:58:55.026Z,101240.00
